Etusivu
METAR-TAF:

METAR-TAF

Lentoasemat :

Baker Municipal Airport

Baker, Montana, Yhdysvallat

Leveyspiiri: 46-20-52N, Pituuspiiri: 104-15-27W, korkeus merenpinnasta: 905 m

Tämänhetkinen sää

Tämä raportti tehtiin 50 minuuttia sitten, kello 06.51 UTC
Tuuli 12 kn idästä/kaakosta
Lämpötila 0°C
Kosteus 100%
Ilmanpaine 1024 hPa
Näkyvyys: 2.8 km
Pilvistä 200 ft:n korkeudessa
utua

METAR: KBHK 250651Z AUTO 12012KT 1 3/4SM BR OVC002 00/00 A3025 RMK AO2 SLP266 T00000000 400390000

Aika: 01:41 (07:41 UTC)


TAF: puuttuu

Säähavainnot ja -ennusteet yli 4000 lentoasemalta (METAR- ja TAF-raportit).

Käytössä olevat sääasemat on merkitty karttaan keltaisilla ja punaisilla pisteillä.

Aseta hiiri pisteen päälle nähdäksesi sääaseman nimen.

Klikkaa sitten nähdäksesi säähavainnot ja -ennusteet.

Kartan vaihtaminen: klikkaa mustalla rastilla varustettuja vihreitä pisteitä, niin voit zoomata sisään; viivalla varustettua vihreää pistettä, niin voit zoomata ulos tai vihreitä nuolia, niin pääset viereisille kartoille.


METAR-TAF: